Skip Navigation Links
NOAA logo - Click to go to the NOAA homepage
NOAA's National Weather Service
Alaska Aviation Weather Unit
  NWS logo - Click to go to the NWS homepage
Left Navbar Graphic     09 AKDT = 17 GMT

   
NOAA is celebrating 200 years of science, service, and stewardship. Visit the NOAA 200th celebration Web site to learn more.
USA.gov is the U.S. Government's official Web portal to all Federal, state and local government Web resources and services.
Facebook
NWS on Facebook

Important Change Regarding the AAWU Web Presence

 

Over the last several months, the AAWU has been working to navigate its webpages to a nationally supported server. Security, as well as other needs, have necessitated the change.  In the process, we have made an effort to enhance the functionality of our website, as well as some of our products. As of June 20, 2017, aawu.arh.noaa.gov will be discontinued. The new AAWU web address is weather.gov/aawu. It is now live and will run in-parallel with the old site until it is discontinued. Please send any feedback or questions regarding the new webpages to nws.ar.aawu.webauthors@noaa.gov.  Thank you for your patience during this time of transition.
AAWU Home :: Display TAF Add Bookmark
TAF PASN 271721Z 2718/2818 VRB06KT P6SM SCT015 OVC025
      TEMPO 2718/2722 25008KT BKN015
     FM281200 10005KT 3SM BR OVC012=

METAR PASN 271153Z AUTO 25008KT 10SM FEW014 BKN019 OVC025 04/02 A2991 RMK AO2 SLP128 T00390017 10044 20039 57007 TSNO $= METAR PASN 271253Z AUTO 25009KT 10SM OVC015 04/02 A2990 RMK AO2 SLP126 T00390017 TSNO $= METAR PASN 271353Z AUTO 26010KT 10SM BKN016 OVC024 04/02 A2989 RMK AO2 SLP123 T00390022 TSNO $= PASN 271409Z AUTO 26008KT 10SM OVC014 04/02 A2989= PASN 271434Z AUTO 26009KT 10SM BKN016 BKN023 OVC027 04/02 A2989= METAR PASN 271453Z AUTO 26008KT 10SM FEW016 OVC026 04/02 A2988 RMK AO2 SLP120 T00390022 58007 TSNO $= PASN 271545Z AUTO 25009KT 10SM FEW014 SCT022 OVC033 04/02 A2988= METAR PASN 271553Z AUTO 26008KT 10SM FEW012 FEW022 OVC032 04/02 A2989 RMK AO2 SLP121 T00390022 TSNO $= PASN 271611Z AUTO 25008KT 10SM BKN014 OVC031 04/02 A2989= PASN 271642Z AUTO 25008KT 10SM SCT013 OVC030 04/02 A2988= PASN 271649Z AUTO 26009KT 10SM FEW012 OVC028 04/02 A2988= METAR PASN 271653Z AUTO 26010KT 10SM FEW012 BKN026 OVC031 04/02 A2988 RMK AO2 SLP119 T00390022 TSNO $=
 Alaska TAF Map

NOAA's National Weather Service
Alaska Aviation Weather Unit
6930 Sand Lake Road
Anchorage, AK 99502-1845
Disclaimer
Credits
Glossary
Privacy Policy
About Us
Career Opportunities
Contact AAWU Internet Services Site last modified: April, 17th 2012